sensor_id;sensor_type;location;lat;lon;timestamp;temperature;humidity
2839;DHT22;1427;48.510;9.060;2023-07-13T00:01:14;20.80;99.90
2839;DHT22;1427;48.510;9.060;2023-07-13T00:03:42;20.80;99.90
2839;DHT22;1427;48.510;9.060;2023-07-13T00:06:11;20.80;99.90
2839;DHT22;1427;48.510;9.060;2023-07-13T00:08:39;20.70;99.90
2839;DHT22;1427;48.510;9.060;2023-07-13T00:11:07;20.70;99.90
2839;DHT22;1427;48.510;9.060;2023-07-13T00:13:37;20.70;99.90
2839;DHT22;1427;48.510;9.060;2023-07-13T00:16:08;20.70;99.90
2839;DHT22;1427;48.510;9.060;2023-07-13T00:18:37;20.60;99.90
2839;DHT22;1427;48.510;9.060;2023-07-13T00:21:05;20.60;99.90
2839;DHT22;1427;48.510;9.060;2023-07-13T00:23:34;20.60;99.90
2839;DHT22;1427;48.510;9.060;2023-07-13T00:26:04;20.50;99.90
2839;DHT22;1427;48.510;9.060;2023-07-13T00:28:34;20.50;99.90
2839;DHT22;1427;48.510;9.060;2023-07-13T00:31:02;20.50;99.90
2839;DHT22;1427;48.510;9.060;2023-07-13T00:33:36;20.50;99.90
2839;DHT22;1427;48.510;9.060;2023-07-13T00:36:04;20.50;99.90
2839;DHT22;1427;48.510;9.060;2023-07-13T00:38:32;20.50;99.90
2839;DHT22;1427;48.510;9.060;2023-07-13T00:41:01;20.50;99.90
2839;DHT22;1427;48.510;9.060;2023-07-13T00:43:30;20.50;99.90
2839;DHT22;1427;48.510;9.060;2023-07-13T00:46:16;20.50;99.90
2839;DHT22;1427;48.510;9.060;2023-07-13T00:48:48;20.40;99.90
2839;DHT22;1427;48.510;9.060;2023-07-13T00:51:18;20.50;99.90
2839;DHT22;1427;48.510;9.060;2023-07-13T00:53:46;20.50;99.90
2839;DHT22;1427;48.510;9.060;2023-07-13T00:56:14;20.50;99.90
2839;DHT22;1427;48.510;9.060;2023-07-13T00:58:42;20.50;99.90
2839;DHT22;1427;48.510;9.060;2023-07-13T01:01:10;20.40;99.90
2839;DHT22;1427;48.510;9.060;2023-07-13T01:03:39;20.30;99.90
2839;DHT22;1427;48.510;9.060;2023-07-13T01:06:09;20.30;99.90
2839;DHT22;1427;48.510;9.060;2023-07-13T01:08:38;20.20;99.90
2839;DHT22;1427;48.510;9.060;2023-07-13T01:11:06;20.30;99.90
2839;DHT22;1427;48.510;9.060;2023-07-13T01:13:36;20.30;99.90
2839;DHT22;1427;48.510;9.060;2023-07-13T01:16:11;20.20;99.90
2839;DHT22;1427;48.510;9.060;2023-07-13T01:18:41;20.20;99.90
2839;DHT22;1427;48.510;9.060;2023-07-13T01:21:10;20.30;99.90
2839;DHT22;1427;48.510;9.060;2023-07-13T01:23:38;20.20;99.90
2839;DHT22;1427;48.510;9.060;2023-07-13T01:26:06;20.20;99.90
2839;DHT22;1427;48.510;9.060;2023-07-13T01:28:35;20.10;99.90
2839;DHT22;1427;48.510;9.060;2023-07-13T01:31:04;20.10;99.90
2839;DHT22;1427;48.510;9.060;2023-07-13T01:33:32;20.00;99.90
2839;DHT22;1427;48.510;9.060;2023-07-13T01:36:01;20.00;99.90
2839;DHT22;1427;48.510;9.060;2023-07-13T01:38:30;19.90;99.90
2839;DHT22;1427;48.510;9.060;2023-07-13T01:40:59;19.90;99.90
2839;DHT22;1427;48.510;9.060;2023-07-13T01:43:27;19.80;99.90
2839;DHT22;1427;48.510;9.060;2023-07-13T01:45:55;19.80;99.90
2839;DHT22;1427;48.510;9.060;2023-07-13T01:48:42;19.70;99.90
2839;DHT22;1427;48.510;9.060;2023-07-13T01:51:10;19.60;99.90
2839;DHT22;1427;48.510;9.060;2023-07-13T01:53:40;19.60;99.90
2839;DHT22;1427;48.510;9.060;2023-07-13T01:56:08;19.50;99.90
2839;DHT22;1427;48.510;9.060;2023-07-13T01:58:36;19.50;99.90
2839;DHT22;1427;48.510;9.060;2023-07-13T02:01:04;19.40;99.90
2839;DHT22;1427;48.510;9.060;2023-07-13T02:03:33;19.40;99.90
2839;DHT22;1427;48.510;9.060;2023-07-13T02:06:01;19.40;99.90
2839;DHT22;1427;48.510;9.060;2023-07-13T02:08:30;19.30;99.90
2839;DHT22;1427;48.510;9.060;2023-07-13T02:11:00;19.30;99.90
2839;DHT22;1427;48.510;9.060;2023-07-13T02:13:28;19.40;99.90
2839;DHT22;1427;48.510;9.060;2023-07-13T02:15:56;19.20;99.90
2839;DHT22;1427;48.510;9.060;2023-07-13T02:18:24;19.20;99.90
2839;DHT22;1427;48.510;9.060;2023-07-13T02:20:52;19.20;99.90
2839;DHT22;1427;48.510;9.060;2023-07-13T02:23:20;19.10;99.90
2839;DHT22;1427;48.510;9.060;2023-07-13T02:25:48;18.90;99.90
2839;DHT22;1427;48.510;9.060;2023-07-13T02:28:17;18.90;99.90
2839;DHT22;1427;48.510;9.060;2023-07-13T02:30:45;18.80;99.90
2839;DHT22;1427;48.510;9.060;2023-07-13T02:33:13;18.80;99.90
2839;DHT22;1427;48.510;9.060;2023-07-13T02:35:42;18.70;99.90
2839;DHT22;1427;48.510;9.060;2023-07-13T02:38:10;18.60;99.90
2839;DHT22;1427;48.510;9.060;2023-07-13T02:40:38;18.60;99.90
2839;DHT22;1427;48.510;9.060;2023-07-13T02:43:06;18.60;99.90
2839;DHT22;1427;48.510;9.060;2023-07-13T02:45:35;18.50;99.90
2839;DHT22;1427;48.510;9.060;2023-07-13T02:48:03;18.50;99.90
2839;DHT22;1427;48.510;9.060;2023-07-13T02:50:31;18.40;99.90
2839;DHT22;1427;48.510;9.060;2023-07-13T02:52:59;18.20;99.90
2839;DHT22;1427;48.510;9.060;2023-07-13T02:55:27;18.10;99.90
2839;DHT22;1427;48.510;9.060;2023-07-13T02:57:56;18.10;99.90
2839;DHT22;1427;48.510;9.060;2023-07-13T03:00:24;18.10;99.90
2839;DHT22;1427;48.510;9.060;2023-07-13T03:02:53;18.00;99.90
2839;DHT22;1427;48.510;9.060;2023-07-13T03:05:24;18.00;99.90
2839;DHT22;1427;48.510;9.060;2023-07-13T03:07:52;18.00;99.90
2839;DHT22;1427;48.510;9.060;2023-07-13T03:10:21;17.90;99.90
2839;DHT22;1427;48.510;9.060;2023-07-13T03:12:49;17.80;99.90
2839;DHT22;1427;48.510;9.060;2023-07-13T03:15:17;17.80;99.90
2839;DHT22;1427;48.510;9.060;2023-07-13T03:17:45;17.70;99.90
2839;DHT22;1427;48.510;9.060;2023-07-13T03:20:15;17.70;99.90
2839;DHT22;1427;48.510;9.060;2023-07-13T03:22:43;17.70;99.90
2839;DHT22;1427;48.510;9.060;2023-07-13T03:25:12;17.80;99.90
2839;DHT22;1427;48.510;9.060;2023-07-13T03:27:40;17.90;99.90
2839;DHT22;1427;48.510;9.060;2023-07-13T03:30:09;17.80;99.90
2839;DHT22;1427;48.510;9.060;2023-07-13T03:32:37;17.80;99.90
2839;DHT22;1427;48.510;9.060;2023-07-13T03:35:05;17.80;99.90
2839;DHT22;1427;48.510;9.060;2023-07-13T03:37:35;17.80;99.90
2839;DHT22;1427;48.510;9.060;2023-07-13T03:40:12;17.80;99.90
2839;DHT22;1427;48.510;9.060;2023-07-13T03:42:40;17.80;99.90
2839;DHT22;1427;48.510;9.060;2023-07-13T03:45:09;17.80;99.90
2839;DHT22;1427;48.510;9.060;2023-07-13T03:47:37;18.00;99.90
2839;DHT22;1427;48.510;9.060;2023-07-13T03:50:06;18.00;99.90
2839;DHT22;1427;48.510;9.060;2023-07-13T03:52:35;18.00;99.90
2839;DHT22;1427;48.510;9.060;2023-07-13T03:55:05;17.90;99.90
2839;DHT22;1427;48.510;9.060;2023-07-13T03:57:34;17.90;99.90
2839;DHT22;1427;48.510;9.060;2023-07-13T04:00:07;17.90;99.90
2839;DHT22;1427;48.510;9.060;2023-07-13T04:02:35;17.80;99.90
2839;DHT22;1427;48.510;9.060;2023-07-13T04:05:04;17.80;99.90
2839;DHT22;1427;48.510;9.060;2023-07-13T04:07:33;17.80;99.90
2839;DHT22;1427;48.510;9.060;2023-07-13T04:10:03;17.60;99.90
2839;DHT22;1427;48.510;9.060;2023-07-13T04:12:31;17.60;99.90
2839;DHT22;1427;48.510;9.060;2023-07-13T04:14:59;17.40;99.90
2839;DHT22;1427;48.510;9.060;2023-07-13T04:17:27;17.30;99.90
2839;DHT22;1427;48.510;9.060;2023-07-13T04:19:55;17.40;99.90
2839;DHT22;1427;48.510;9.060;2023-07-13T04:22:23;17.50;99.90
2839;DHT22;1427;48.510;9.060;2023-07-13T04:24:51;17.70;99.90
2839;DHT22;1427;48.510;9.060;2023-07-13T04:27:21;17.60;99.90
2839;DHT22;1427;48.510;9.060;2023-07-13T04:29:51;17.60;99.90
2839;DHT22;1427;48.510;9.060;2023-07-13T04:32:19;17.60;99.90
2839;DHT22;1427;48.510;9.060;2023-07-13T04:34:47;17.80;99.90
2839;DHT22;1427;48.510;9.060;2023-07-13T04:37:20;17.80;99.90
2839;DHT22;1427;48.510;9.060;2023-07-13T04:39:48;17.80;99.90
2839;DHT22;1427;48.510;9.060;2023-07-13T04:42:16;17.80;99.90
2839;DHT22;1427;48.510;9.060;2023-07-13T04:44:49;17.70;99.90
2839;DHT22;1427;48.510;9.060;2023-07-13T04:47:17;17.60;99.90
2839;DHT22;1427;48.510;9.060;2023-07-13T04:49:45;17.60;99.90
2839;DHT22;1427;48.510;9.060;2023-07-13T04:52:13;17.60;99.90
2839;DHT22;1427;48.510;9.060;2023-07-13T04:54:41;17.60;99.90
2839;DHT22;1427;48.510;9.060;2023-07-13T04:57:09;17.60;99.90
2839;DHT22;1427;48.510;9.060;2023-07-13T04:59:37;17.70;99.90
2839;DHT22;1427;48.510;9.060;2023-07-13T05:02:07;17.60;99.90
2839;DHT22;1427;48.510;9.060;2023-07-13T05:04:35;17.30;99.90
2839;DHT22;1427;48.510;9.060;2023-07-13T05:07:04;17.30;99.90
2839;DHT22;1427;48.510;9.060;2023-07-13T05:09:32;17.40;99.90
2839;DHT22;1427;48.510;9.060;2023-07-13T05:12:00;17.40;99.90
2839;DHT22;1427;48.510;9.060;2023-07-13T05:14:28;17.40;99.90
2839;DHT22;1427;48.510;9.060;2023-07-13T05:16:56;17.60;99.90
2839;DHT22;1427;48.510;9.060;2023-07-13T05:19:26;17.70;99.90
2839;DHT22;1427;48.510;9.060;2023-07-13T05:21:55;17.80;99.90
2839;DHT22;1427;48.510;9.060;2023-07-13T05:24:23;17.70;99.90
2839;DHT22;1427;48.510;9.060;2023-07-13T05:26:52;17.90;99.90
2839;DHT22;1427;48.510;9.060;2023-07-13T05:29:20;17.90;99.90
2839;DHT22;1427;48.510;9.060;2023-07-13T05:31:49;17.90;99.90
2839;DHT22;1427;48.510;9.060;2023-07-13T05:34:18;17.90;99.90
2839;DHT22;1427;48.510;9.060;2023-07-13T05:36:48;17.90;99.90
2839;DHT22;1427;48.510;9.060;2023-07-13T05:39:16;18.00;99.90
2839;DHT22;1427;48.510;9.060;2023-07-13T05:41:44;17.90;99.90
2839;DHT22;1427;48.510;9.060;2023-07-13T05:44:12;18.00;99.90
2839;DHT22;1427;48.510;9.060;2023-07-13T05:46:40;18.00;99.90
2839;DHT22;1427;48.510;9.060;2023-07-13T05:49:08;18.10;99.90
2839;DHT22;1427;48.510;9.060;2023-07-13T05:51:36;18.10;99.90
2839;DHT22;1427;48.510;9.060;2023-07-13T05:54:06;18.20;99.90
2839;DHT22;1427;48.510;9.060;2023-07-13T05:56:34;18.20;99.90
2839;DHT22;1427;48.510;9.060;2023-07-13T05:59:02;18.30;99.90
2839;DHT22;1427;48.510;9.060;2023-07-13T06:01:30;18.40;99.90
2839;DHT22;1427;48.510;9.060;2023-07-13T06:03:59;18.40;99.90
2839;DHT22;1427;48.510;9.060;2023-07-13T06:06:27;18.30;99.90
2839;DHT22;1427;48.510;9.060;2023-07-13T06:08:55;18.40;99.90
2839;DHT22;1427;48.510;9.060;2023-07-13T06:11:26;18.30;99.90
2839;DHT22;1427;48.510;9.060;2023-07-13T06:13:57;18.30;99.90
2839;DHT22;1427;48.510;9.060;2023-07-13T06:16:25;18.30;99.90
2839;DHT22;1427;48.510;9.060;2023-07-13T06:18:53;18.50;99.90
2839;DHT22;1427;48.510;9.060;2023-07-13T06:21:22;18.80;99.90
2839;DHT22;1427;48.510;9.060;2023-07-13T06:23:51;19.00;99.90
2839;DHT22;1427;48.510;9.060;2023-07-13T06:26:21;19.10;99.90
2839;DHT22;1427;48.510;9.060;2023-07-13T06:28:50;19.30;99.90
2839;DHT22;1427;48.510;9.060;2023-07-13T06:31:18;19.50;99.90
2839;DHT22;1427;48.510;9.060;2023-07-13T06:33:46;19.70;99.90
2839;DHT22;1427;48.510;9.060;2023-07-13T06:36:14;19.90;99.90
2839;DHT22;1427;48.510;9.060;2023-07-13T06:38:42;20.10;99.90
2839;DHT22;1427;48.510;9.060;2023-07-13T06:41:11;20.30;99.90
2839;DHT22;1427;48.510;9.060;2023-07-13T06:43:39;20.50;99.90
2839;DHT22;1427;48.510;9.060;2023-07-13T06:46:10;21.00;99.90
2839;DHT22;1427;48.510;9.060;2023-07-13T06:48:38;21.50;99.90
2839;DHT22;1427;48.510;9.060;2023-07-13T06:51:07;21.70;99.90
2839;DHT22;1427;48.510;9.060;2023-07-13T06:53:36;21.90;99.90
2839;DHT22;1427;48.510;9.060;2023-07-13T06:56:04;21.80;99.90
2839;DHT22;1427;48.510;9.060;2023-07-13T06:58:34;22.00;99.90
2839;DHT22;1427;48.510;9.060;2023-07-13T07:01:02;22.00;99.90
2839;DHT22;1427;48.510;9.060;2023-07-13T07:03:34;22.10;99.90
2839;DHT22;1427;48.510;9.060;2023-07-13T07:06:12;22.00;99.90
2839;DHT22;1427;48.510;9.060;2023-07-13T07:08:40;21.90;99.90
2839;DHT22;1427;48.510;9.060;2023-07-13T07:11:11;21.90;99.90
2839;DHT22;1427;48.510;9.060;2023-07-13T07:13:39;22.10;99.90
2839;DHT22;1427;48.510;9.060;2023-07-13T07:16:08;22.40;99.90
2839;DHT22;1427;48.510;9.060;2023-07-13T07:18:37;22.50;99.90
2839;DHT22;1427;48.510;9.060;2023-07-13T07:21:05;22.60;98.50
2839;DHT22;1427;48.510;9.060;2023-07-13T07:23:34;22.50;98.00
2839;DHT22;1427;48.510;9.060;2023-07-13T07:26:02;22.60;99.00
2839;DHT22;1427;48.510;9.060;2023-07-13T07:28:30;22.60;98.60
2839;DHT22;1427;48.510;9.060;2023-07-13T07:31:02;22.80;98.50
2839;DHT22;1427;48.510;9.060;2023-07-13T07:33:33;23.00;97.50
2839;DHT22;1427;48.510;9.060;2023-07-13T07:36:03;22.50;97.30
2839;DHT22;1427;48.510;9.060;2023-07-13T07:38:34;22.50;97.80
2839;DHT22;1427;48.510;9.060;2023-07-13T07:41:03;22.50;97.50
2839;DHT22;1427;48.510;9.060;2023-07-13T07:43:35;22.60;97.60
2839;DHT22;1427;48.510;9.060;2023-07-13T07:46:03;22.90;97.50
2839;DHT22;1427;48.510;9.060;2023-07-13T07:48:32;23.30;97.40
2839;DHT22;1427;48.510;9.060;2023-07-13T07:51:00;23.60;96.60
2839;DHT22;1427;48.510;9.060;2023-07-13T07:53:29;23.40;95.60
2839;DHT22;1427;48.510;9.060;2023-07-13T07:56:00;23.50;95.00
2839;DHT22;1427;48.510;9.060;2023-07-13T07:58:48;23.70;94.10
2839;DHT22;1427;48.510;9.060;2023-07-13T08:01:19;23.40;93.20
2839;DHT22;1427;48.510;9.060;2023-07-13T08:03:50;23.00;93.40
2839;DHT22;1427;48.510;9.060;2023-07-13T08:06:21;23.00;94.20
2839;DHT22;1427;48.510;9.060;2023-07-13T08:08:54;23.20;94.20
2839;DHT22;1427;48.510;9.060;2023-07-13T08:11:22;23.40;93.80
2839;DHT22;1427;48.510;9.060;2023-07-13T08:13:53;23.50;93.50
2839;DHT22;1427;48.510;9.060;2023-07-13T08:16:22;23.60;92.80
2839;DHT22;1427;48.510;9.060;2023-07-13T08:18:50;23.80;92.10
2839;DHT22;1427;48.510;9.060;2023-07-13T08:21:18;24.00;92.90
2839;DHT22;1427;48.510;9.060;2023-07-13T08:23:47;24.20;92.20
2839;DHT22;1427;48.510;9.060;2023-07-13T08:26:16;24.30;91.30
2839;DHT22;1427;48.510;9.060;2023-07-13T08:28:44;24.30;91.50
2839;DHT22;1427;48.510;9.060;2023-07-13T08:31:12;24.40;91.30
2839;DHT22;1427;48.510;9.060;2023-07-13T08:33:42;24.30;90.60
2839;DHT22;1427;48.510;9.060;2023-07-13T08:36:10;24.40;91.50
2839;DHT22;1427;48.510;9.060;2023-07-13T08:38:38;24.60;87.50
2839;DHT22;1427;48.510;9.060;2023-07-13T08:41:16;24.40;86.40
2839;DHT22;1427;48.510;9.060;2023-07-13T08:43:48;24.40;88.40
2839;DHT22;1427;48.510;9.060;2023-07-13T08:46:21;24.60;89.10
2839;DHT22;1427;48.510;9.060;2023-07-13T08:48:57;24.90;89.20
2839;DHT22;1427;48.510;9.060;2023-07-13T08:51:35;25.00;85.30
2839;DHT22;1427;48.510;9.060;2023-07-13T08:54:14;24.80;84.70
2839;DHT22;1427;48.510;9.060;2023-07-13T08:56:46;24.70;86.60
2839;DHT22;1427;48.510;9.060;2023-07-13T08:59:16;24.70;85.00
2839;DHT22;1427;48.510;9.060;2023-07-13T09:01:58;24.90;86.80
2839;DHT22;1427;48.510;9.060;2023-07-13T09:04:30;25.20;86.70
2839;DHT22;1427;48.510;9.060;2023-07-13T09:07:12;25.40;86.80
2839;DHT22;1427;48.510;9.060;2023-07-13T09:09:50;25.80;85.90
2839;DHT22;1427;48.510;9.060;2023-07-13T09:12:27;26.00;86.00
2839;DHT22;1427;48.510;9.060;2023-07-13T09:15:02;26.20;86.80
2839;DHT22;1427;48.510;9.060;2023-07-13T09:17:36;26.30;84.70
2839;DHT22;1427;48.510;9.060;2023-07-13T09:20:14;25.80;82.90
2839;DHT22;1427;48.510;9.060;2023-07-13T09:22:44;25.50;83.80
2839;DHT22;1427;48.510;9.060;2023-07-13T09:25:24;25.10;85.00
2839;DHT22;1427;48.510;9.060;2023-07-13T09:27:59;25.40;86.00
2839;DHT22;1427;48.510;9.060;2023-07-13T09:30:34;25.60;85.20
2839;DHT22;1427;48.510;9.060;2023-07-13T09:33:04;26.00;83.50
2839;DHT22;1427;48.510;9.060;2023-07-13T09:35:35;26.10;84.40
2839;DHT22;1427;48.510;9.060;2023-07-13T09:38:11;26.20;85.50
2839;DHT22;1427;48.510;9.060;2023-07-13T09:40:59;26.10;82.30
2839;DHT22;1427;48.510;9.060;2023-07-13T09:43:31;25.80;81.10
2839;DHT22;1427;48.510;9.060;2023-07-13T09:45:59;25.70;81.20
2839;DHT22;1427;48.510;9.060;2023-07-13T09:48:34;25.40;79.80
2839;DHT22;1427;48.510;9.060;2023-07-13T09:51:10;25.60;80.80
2839;DHT22;1427;48.510;9.060;2023-07-13T09:53:42;25.90;82.30
2839;DHT22;1427;48.510;9.060;2023-07-13T09:56:20;26.00;80.60
2839;DHT22;1427;48.510;9.060;2023-07-13T09:58:50;26.00;79.00
2839;DHT22;1427;48.510;9.060;2023-07-13T10:01:31;26.10;82.10
2839;DHT22;1427;48.510;9.060;2023-07-13T10:04:00;26.40;78.40
2839;DHT22;1427;48.510;9.060;2023-07-13T10:06:28;26.00;78.70
2839;DHT22;1427;48.510;9.060;2023-07-13T10:08:57;26.00;77.50
2839;DHT22;1427;48.510;9.060;2023-07-13T10:11:28;26.10;77.90
2839;DHT22;1427;48.510;9.060;2023-07-13T10:14:00;26.10;78.10
2839;DHT22;1427;48.510;9.060;2023-07-13T10:16:31;26.30;78.30
2839;DHT22;1427;48.510;9.060;2023-07-13T10:19:02;26.30;76.40
2839;DHT22;1427;48.510;9.060;2023-07-13T10:21:35;26.20;77.30
2839;DHT22;1427;48.510;9.060;2023-07-13T10:24:11;26.40;76.30
2839;DHT22;1427;48.510;9.060;2023-07-13T10:26:46;26.70;75.50
2839;DHT22;1427;48.510;9.060;2023-07-13T10:29:16;26.90;74.50
2839;DHT22;1427;48.510;9.060;2023-07-13T10:31:45;26.60;76.30
2839;DHT22;1427;48.510;9.060;2023-07-13T10:34:14;26.70;75.00
2839;DHT22;1427;48.510;9.060;2023-07-13T10:36:44;26.80;74.50
2839;DHT22;1427;48.510;9.060;2023-07-13T10:39:16;26.40;75.30
2839;DHT22;1427;48.510;9.060;2023-07-13T10:41:49;26.30;73.50
2839;DHT22;1427;48.510;9.060;2023-07-13T10:44:22;26.00;76.10
2839;DHT22;1427;48.510;9.060;2023-07-13T10:46:55;26.10;74.30
2839;DHT22;1427;48.510;9.060;2023-07-13T10:49:28;26.00;76.30
2839;DHT22;1427;48.510;9.060;2023-07-13T10:51:56;26.10;75.80
2839;DHT22;1427;48.510;9.060;2023-07-13T10:54:27;26.40;74.80
2839;DHT22;1427;48.510;9.060;2023-07-13T10:57:14;26.70;74.90
2839;DHT22;1427;48.510;9.060;2023-07-13T10:59:48;27.10;75.00
2839;DHT22;1427;48.510;9.060;2023-07-13T11:02:25;27.30;75.70
2839;DHT22;1427;48.510;9.060;2023-07-13T11:04:56;27.40;73.20
2839;DHT22;1427;48.510;9.060;2023-07-13T11:07:26;27.40;73.90
2839;DHT22;1427;48.510;9.060;2023-07-13T11:09:56;27.40;73.60
2839;DHT22;1427;48.510;9.060;2023-07-13T11:12:50;27.10;71.50
2839;DHT22;1427;48.510;9.060;2023-07-13T11:15:32;26.80;74.00
2839;DHT22;1427;48.510;9.060;2023-07-13T11:18:04;26.60;73.20
2839;DHT22;1427;48.510;9.060;2023-07-13T11:20:41;26.50;75.40
2839;DHT22;1427;48.510;9.060;2023-07-13T11:23:30;26.60;75.20
2839;DHT22;1427;48.510;9.060;2023-07-13T11:25:59;26.80;75.80
2839;DHT22;1427;48.510;9.060;2023-07-13T11:28:31;27.30;75.80
2839;DHT22;1427;48.510;9.060;2023-07-13T11:31:14;27.60;73.10
2839;DHT22;1427;48.510;9.060;2023-07-13T11:33:56;27.30;72.30
2839;DHT22;1427;48.510;9.060;2023-07-13T11:36:31;27.40;71.90
2839;DHT22;1427;48.510;9.060;2023-07-13T11:39:09;27.50;73.80
2839;DHT22;1427;48.510;9.060;2023-07-13T11:41:45;27.40;72.50
2839;DHT22;1427;48.510;9.060;2023-07-13T11:44:17;27.30;71.30
2839;DHT22;1427;48.510;9.060;2023-07-13T11:46:49;27.30;71.50
2839;DHT22;1427;48.510;9.060;2023-07-13T11:49:23;27.50;70.60
2839;DHT22;1427;48.510;9.060;2023-07-13T11:51:54;27.40;69.80
2839;DHT22;1427;48.510;9.060;2023-07-13T11:54:27;27.30;69.70
2839;DHT22;1427;48.510;9.060;2023-07-13T11:56:58;27.30;72.20
2839;DHT22;1427;48.510;9.060;2023-07-13T11:59:30;27.60;71.50
2839;DHT22;1427;48.510;9.060;2023-07-13T12:02:01;28.00;72.30
2839;DHT22;1427;48.510;9.060;2023-07-13T12:04:32;28.10;65.30
2839;DHT22;1427;48.510;9.060;2023-07-13T12:07:07;27.80;65.80
2839;DHT22;1427;48.510;9.060;2023-07-13T12:09:36;27.60;67.80
2839;DHT22;1427;48.510;9.060;2023-07-13T12:12:10;27.60;66.60
2839;DHT22;1427;48.510;9.060;2023-07-13T12:14:40;27.50;66.20
2839;DHT22;1427;48.510;9.060;2023-07-13T12:17:15;27.80;65.00
2839;DHT22;1427;48.510;9.060;2023-07-13T12:19:43;27.90;67.70
2839;DHT22;1427;48.510;9.060;2023-07-13T12:22:13;28.00;66.80
2839;DHT22;1427;48.510;9.060;2023-07-13T12:24:42;28.00;67.30
2839;DHT22;1427;48.510;9.060;2023-07-13T12:27:19;28.20;67.50
2839;DHT22;1427;48.510;9.060;2023-07-13T12:29:50;28.20;66.20
2839;DHT22;1427;48.510;9.060;2023-07-13T12:32:21;27.80;66.60
2839;DHT22;1427;48.510;9.060;2023-07-13T12:34:53;27.50;66.20
2839;DHT22;1427;48.510;9.060;2023-07-13T12:37:24;27.40;66.30
2839;DHT22;1427;48.510;9.060;2023-07-13T12:39:52;27.50;66.20
2839;DHT22;1427;48.510;9.060;2023-07-13T12:42:22;27.40;65.40
2839;DHT22;1427;48.510;9.060;2023-07-13T12:44:53;26.90;65.50
2839;DHT22;1427;48.510;9.060;2023-07-13T12:47:23;26.80;67.70
2839;DHT22;1427;48.510;9.060;2023-07-13T12:49:55;26.80;66.70
2839;DHT22;1427;48.510;9.060;2023-07-13T12:52:27;27.00;67.10
2839;DHT22;1427;48.510;9.060;2023-07-13T12:55:02;27.30;65.50
2839;DHT22;1427;48.510;9.060;2023-07-13T12:57:39;27.40;66.20
2839;DHT22;1427;48.510;9.060;2023-07-13T13:00:21;27.80;67.90
2839;DHT22;1427;48.510;9.060;2023-07-13T13:02:54;27.90;65.80
2839;DHT22;1427;48.510;9.060;2023-07-13T13:05:43;28.00;65.50
2839;DHT22;1427;48.510;9.060;2023-07-13T13:08:12;28.20;68.10
2839;DHT22;1427;48.510;9.060;2023-07-13T13:10:40;28.30;64.90
2839;DHT22;1427;48.510;9.060;2023-07-13T13:13:08;28.40;63.90
2839;DHT22;1427;48.510;9.060;2023-07-13T13:15:36;28.30;64.90
2839;DHT22;1427;48.510;9.060;2023-07-13T13:18:15;28.30;64.40
2839;DHT22;1427;48.510;9.060;2023-07-13T13:20:43;28.10;63.80
2839;DHT22;1427;48.510;9.060;2023-07-13T13:23:13;27.90;65.70
2839;DHT22;1427;48.510;9.060;2023-07-13T13:25:44;27.80;65.30
2839;DHT22;1427;48.510;9.060;2023-07-13T13:28:14;27.80;65.00
2839;DHT22;1427;48.510;9.060;2023-07-13T13:30:44;28.00;64.30
2839;DHT22;1427;48.510;9.060;2023-07-13T13:33:16;28.20;63.70
2839;DHT22;1427;48.510;9.060;2023-07-13T13:35:44;28.30;62.80
2839;DHT22;1427;48.510;9.060;2023-07-13T13:38:13;28.40;64.30
2839;DHT22;1427;48.510;9.060;2023-07-13T13:40:42;28.50;63.90
2839;DHT22;1427;48.510;9.060;2023-07-13T13:43:15;28.50;62.90
2839;DHT22;1427;48.510;9.060;2023-07-13T13:45:45;28.40;63.30
2839;DHT22;1427;48.510;9.060;2023-07-13T13:48:17;28.30;63.50
2839;DHT22;1427;48.510;9.060;2023-07-13T13:50:47;28.20;63.10
2839;DHT22;1427;48.510;9.060;2023-07-13T13:53:15;28.20;64.00
2839;DHT22;1427;48.510;9.060;2023-07-13T13:55:43;28.30;63.40
2839;DHT22;1427;48.510;9.060;2023-07-13T13:58:13;28.40;63.00
2839;DHT22;1427;48.510;9.060;2023-07-13T14:00:41;28.40;64.70
2839;DHT22;1427;48.510;9.060;2023-07-13T14:03:17;28.10;62.10
2839;DHT22;1427;48.510;9.060;2023-07-13T14:05:46;27.70;61.80
2839;DHT22;1427;48.510;9.060;2023-07-13T14:08:16;27.30;62.70
2839;DHT22;1427;48.510;9.060;2023-07-13T14:10:45;27.10;62.10
2839;DHT22;1427;48.510;9.060;2023-07-13T14:13:16;27.20;63.50
2839;DHT22;1427;48.510;9.060;2023-07-13T14:15:46;27.60;63.30
2839;DHT22;1427;48.510;9.060;2023-07-13T14:18:16;27.80;61.70
2839;DHT22;1427;48.510;9.060;2023-07-13T14:20:45;27.70;61.10
2839;DHT22;1427;48.510;9.060;2023-07-13T14:23:14;27.60;61.40
2839;DHT22;1427;48.510;9.060;2023-07-13T14:25:42;27.60;61.70
2839;DHT22;1427;48.510;9.060;2023-07-13T14:28:28;27.60;61.70
2839;DHT22;1427;48.510;9.060;2023-07-13T14:30:56;27.40;61.30
2839;DHT22;1427;48.510;9.060;2023-07-13T14:33:26;27.20;62.10
2839;DHT22;1427;48.510;9.060;2023-07-13T14:35:54;27.30;62.10
2839;DHT22;1427;48.510;9.060;2023-07-13T14:38:22;27.50;63.10
2839;DHT22;1427;48.510;9.060;2023-07-13T14:40:50;27.60;61.80
2839;DHT22;1427;48.510;9.060;2023-07-13T14:43:18;27.60;61.90
2839;DHT22;1427;48.510;9.060;2023-07-13T14:45:48;27.50;62.10
2839;DHT22;1427;48.510;9.060;2023-07-13T14:48:19;27.40;62.60
2839;DHT22;1427;48.510;9.060;2023-07-13T14:50:51;27.10;61.80
2839;DHT22;1427;48.510;9.060;2023-07-13T14:53:20;27.20;62.00
2839;DHT22;1427;48.510;9.060;2023-07-13T14:55:49;27.40;61.40
2839;DHT22;1427;48.510;9.060;2023-07-13T14:58:17;27.40;62.50
2839;DHT22;1427;48.510;9.060;2023-07-13T15:00:46;27.40;63.60
2839;DHT22;1427;48.510;9.060;2023-07-13T15:03:19;27.40;65.10
2839;DHT22;1427;48.510;9.060;2023-07-13T15:05:51;27.00;62.90
2839;DHT22;1427;48.510;9.060;2023-07-13T15:08:19;27.00;62.80
2839;DHT22;1427;48.510;9.060;2023-07-13T15:10:48;27.10;64.60
2839;DHT22;1427;48.510;9.060;2023-07-13T15:13:17;27.40;67.80
2839;DHT22;1427;48.510;9.060;2023-07-13T15:15:47;27.70;65.20
2839;DHT22;1427;48.510;9.060;2023-07-13T15:18:18;27.90;65.80
2839;DHT22;1427;48.510;9.060;2023-07-13T15:20:48;28.00;64.40
2839;DHT22;1427;48.510;9.060;2023-07-13T15:23:18;27.90;66.20
2839;DHT22;1427;48.510;9.060;2023-07-13T15:25:46;27.80;65.50
2839;DHT22;1427;48.510;9.060;2023-07-13T15:28:15;27.70;64.80
2839;DHT22;1427;48.510;9.060;2023-07-13T15:30:45;27.50;66.10
2839;DHT22;1427;48.510;9.060;2023-07-13T15:33:24;27.50;66.00
2839;DHT22;1427;48.510;9.060;2023-07-13T15:35:53;27.50;66.70
2839;DHT22;1427;48.510;9.060;2023-07-13T15:38:25;27.60;66.90
2839;DHT22;1427;48.510;9.060;2023-07-13T15:40:53;27.70;67.20
2839;DHT22;1427;48.510;9.060;2023-07-13T15:43:23;27.70;66.20
2839;DHT22;1427;48.510;9.060;2023-07-13T15:45:51;27.50;66.00
2839;DHT22;1427;48.510;9.060;2023-07-13T15:48:21;27.40;67.10
2839;DHT22;1427;48.510;9.060;2023-07-13T15:50:50;27.40;67.40
2839;DHT22;1427;48.510;9.060;2023-07-13T15:53:24;27.40;67.40
2839;DHT22;1427;48.510;9.060;2023-07-13T15:55:53;27.30;68.20
2839;DHT22;1427;48.510;9.060;2023-07-13T15:58:22;27.30;67.20
2839;DHT22;1427;48.510;9.060;2023-07-13T16:00:50;27.00;67.70
2839;DHT22;1427;48.510;9.060;2023-07-13T16:03:20;26.90;69.50
2839;DHT22;1427;48.510;9.060;2023-07-13T16:05:51;26.90;69.40
2839;DHT22;1427;48.510;9.060;2023-07-13T16:08:24;26.90;69.60
2839;DHT22;1427;48.510;9.060;2023-07-13T16:10:53;26.90;69.60
2839;DHT22;1427;48.510;9.060;2023-07-13T16:13:21;26.90;69.10
2839;DHT22;1427;48.510;9.060;2023-07-13T16:15:52;26.80;68.30
2839;DHT22;1427;48.510;9.060;2023-07-13T16:18:34;26.70;68.30
2839;DHT22;1427;48.510;9.060;2023-07-13T16:21:08;26.60;68.50
2839;DHT22;1427;48.510;9.060;2023-07-13T16:23:40;26.50;68.80